Skiathos, Hellas

13:00:EET den 06. mars 2015 (GMT +0200)
Skopelos Greece | Change Station
CLOSE
Current Station
Personlig værstasjon
Location: Ελλάδα,
Høyde over havet: 259 ft
Nearby Weather Stations
Gjeldende advarsel: Thunderstorms

H.o.h 259 ft 39.13 °N, 23.72 °E | Updated 24 seconds ago

Light Rain
Lett regn
50.5 °F
Feels Like 50.5 °F
N
5.3
Vind Variabel Vind from Nord
Gusts 17.4 mph

I dag
High -- | Low -- °F
--% Chance of Precip.
I går
High -- | Low -- °F
Precip. -- tommer
6:52 AM 6:23 PM
Fullmåne, 100% visible
Lufttrykk 29.95 tommer
Sikt 5.0 eng. mil
Skyet Sporadisk skyet 1000 ft
For det meste skyet 3000 ft
Overskyet 8000 ft
Duggpunkt 50 °F
Fuktighet 99%
Regn tommer
Snødybde Not available.
UV 0.0 av 12
Pollen Not available.
Luftkvalitet Not available.
Flu Activity Not available.
METAR LGBL 061050Z 29004KT 8000 -RA SCT010 BKN030 OVC080 13/11 Q1014

More Conditions Fewer Conditions

Lufttrykk 29.95 tommer
Sikt 5.0 eng. mil
Skyet Sporadisk skyet 1000 ft
For det meste skyet 3000 ft
Overskyet 8000 ft
Duggpunkt 50 °F
Fuktighet 99%
Regn tommer
Snødybde Not available.
UV 0.0 av 12
Pollen Not available.
Luftkvalitet Not available.
Flu Activity Not available.
METAR LGBL 061050Z 29004KT 8000 -RA SCT010 BKN030 OVC080 13/11 Q1014

More Conditions Fewer Conditions

10-Day Weather Forecast

Almanac

Astronomi

Mar. 06, 2015 Oppgang Nedgang
Virkelig tid
Tussmørke
Nautisk skumring
Astronomisk skumring
Månen
Lengde av synlig lys
Dagens lengde
Tomorrow will be .
, % of the Moon is Illuminated

Dagens maks og min

Country Highs Country Lows

Community

WunderPhotos

Upload Photos

1,803,223 photos uploaded!

WunderBlogs® & News

Nearby

Luftkvalitet

  Luftkvalitet AQ Indeks Forurensing
Not available.

Snødybde

Stasjon Depth Høyde over havet

Earthquake Activity

By Distance Mag. Time & Date
Minimum magnitude displayed is 2.5.

Coastal Water Temperatures

Sted Temperatur

Nearby Weather Stations